Terminal Aerodrome Forecast
Issued by NWS

Home | Current Version | Previous Version | Text Only | Print | Product List | Glossary On
Versions: 1 2 3 4 5 6 7 8 9 10 11 12 13 14 15 16 17 18 19 20 21
000
FTUS43 KDLH 270500
TAFHYR
TAF
KHYR 270521Z 2706/2806 35008KT P6SM SCT035
     FM271000 33005KT P6SM SCT015
     FM272100 25005KT P6SM SKC
     FM280200 18004KT P6SM SCT120=

USA.gov is the U.S. government's official web portal to all federal, state and local government web resources and services.